sensor_id;sensor_type;location;lat;lon;timestamp;P1;durP1;ratioP1;P2;durP2;ratioP2
1837;SDS011;918;50.796;6.772;2023-02-16T00:00:30;23.80;;;20.13;;
1837;SDS011;918;50.796;6.772;2023-02-16T00:02:55;26.73;;;21.23;;
1837;SDS011;918;50.796;6.772;2023-02-16T00:05:25;23.50;;;19.20;;
1837;SDS011;918;50.796;6.772;2023-02-16T00:07:52;21.93;;;18.47;;
1837;SDS011;918;50.796;6.772;2023-02-16T00:10:18;23.20;;;20.50;;
1837;SDS011;918;50.796;6.772;2023-02-16T00:12:43;23.47;;;19.53;;
1837;SDS011;918;50.796;6.772;2023-02-16T00:15:27;23.30;;;18.43;;
1837;SDS011;918;50.796;6.772;2023-02-16T00:17:53;23.27;;;19.50;;
1837;SDS011;918;50.796;6.772;2023-02-16T00:20:19;23.53;;;18.70;;
1837;SDS011;918;50.796;6.772;2023-02-16T00:22:44;23.17;;;20.77;;
1837;SDS011;918;50.796;6.772;2023-02-16T00:25:12;24.50;;;21.80;;
1837;SDS011;918;50.796;6.772;2023-02-16T00:27:41;27.07;;;22.47;;
1837;SDS011;918;50.796;6.772;2023-02-16T00:30:12;23.10;;;19.63;;
1837;SDS011;918;50.796;6.772;2023-02-16T00:32:42;26.07;;;21.17;;
1837;SDS011;918;50.796;6.772;2023-02-16T00:37:38;22.77;;;18.73;;
1837;SDS011;918;50.796;6.772;2023-02-16T00:40:04;23.60;;;20.40;;
1837;SDS011;918;50.796;6.772;2023-02-16T00:42:30;26.23;;;21.07;;
1837;SDS011;918;50.796;6.772;2023-02-16T00:44:57;23.03;;;19.57;;
1837;SDS011;918;50.796;6.772;2023-02-16T00:47:29;25.93;;;20.90;;
1837;SDS011;918;50.796;6.772;2023-02-16T00:49:56;22.03;;;19.83;;
1837;SDS011;918;50.796;6.772;2023-02-16T00:52:25;23.60;;;20.70;;
1837;SDS011;918;50.796;6.772;2023-02-16T00:54:55;30.20;;;23.00;;
1837;SDS011;918;50.796;6.772;2023-02-16T00:57:21;26.97;;;21.70;;
1837;SDS011;918;50.796;6.772;2023-02-16T00:59:46;27.87;;;20.93;;
1837;SDS011;918;50.796;6.772;2023-02-16T01:02:13;27.83;;;22.83;;
1837;SDS011;918;50.796;6.772;2023-02-16T01:04:38;23.57;;;20.97;;
1837;SDS011;918;50.796;6.772;2023-02-16T01:07:12;24.03;;;20.63;;
1837;SDS011;918;50.796;6.772;2023-02-16T01:09:57;27.63;;;21.70;;
1837;SDS011;918;50.796;6.772;2023-02-16T01:12:40;25.53;;;21.67;;
1837;SDS011;918;50.796;6.772;2023-02-16T01:15:08;26.70;;;21.67;;
1837;SDS011;918;50.796;6.772;2023-02-16T01:17:37;23.90;;;20.20;;
1837;SDS011;918;50.796;6.772;2023-02-16T01:20:02;23.90;;;21.33;;
1837;SDS011;918;50.796;6.772;2023-02-16T01:22:28;23.73;;;18.97;;
1837;SDS011;918;50.796;6.772;2023-02-16T01:24:57;26.77;;;21.30;;
1837;SDS011;918;50.796;6.772;2023-02-16T01:27:22;25.47;;;21.60;;
1837;SDS011;918;50.796;6.772;2023-02-16T01:29:48;25.00;;;21.40;;
1837;SDS011;918;50.796;6.772;2023-02-16T01:32:13;24.33;;;19.53;;
1837;SDS011;918;50.796;6.772;2023-02-16T01:34:38;23.57;;;20.50;;
1837;SDS011;918;50.796;6.772;2023-02-16T01:37:03;28.90;;;20.90;;
1837;SDS011;918;50.796;6.772;2023-02-16T01:39:29;27.60;;;22.47;;
1837;SDS011;918;50.796;6.772;2023-02-16T01:41:56;21.70;;;19.40;;
1837;SDS011;918;50.796;6.772;2023-02-16T01:44:42;25.77;;;20.50;;
1837;SDS011;918;50.796;6.772;2023-02-16T01:49:39;24.50;;;20.73;;
1837;SDS011;918;50.796;6.772;2023-02-16T01:52:06;25.97;;;20.30;;
1837;SDS011;918;50.796;6.772;2023-02-16T01:54:46;25.23;;;20.50;;
1837;SDS011;918;50.796;6.772;2023-02-16T02:02:43;25.87;;;21.70;;
1837;SDS011;918;50.796;6.772;2023-02-16T02:08:02;27.13;;;22.00;;
1837;SDS011;918;50.796;6.772;2023-02-16T02:10:55;25.73;;;22.03;;
1837;SDS011;918;50.796;6.772;2023-02-16T02:13:32;25.90;;;22.50;;
1837;SDS011;918;50.796;6.772;2023-02-16T02:16:03;26.90;;;22.17;;
1837;SDS011;918;50.796;6.772;2023-02-16T02:18:29;26.50;;;21.50;;
1837;SDS011;918;50.796;6.772;2023-02-16T02:34:37;29.00;;;21.67;;
1837;SDS011;918;50.796;6.772;2023-02-16T02:37:10;26.00;;;20.33;;
1837;SDS011;918;50.796;6.772;2023-02-16T02:39:56;24.30;;;20.33;;
1837;SDS011;918;50.796;6.772;2023-02-16T02:42:30;27.17;;;20.40;;
1837;SDS011;918;50.796;6.772;2023-02-16T02:45:02;25.00;;;20.20;;
1837;SDS011;918;50.796;6.772;2023-02-16T02:47:41;24.20;;;20.43;;
1837;SDS011;918;50.796;6.772;2023-02-16T02:53:01;24.73;;;19.70;;
1837;SDS011;918;50.796;6.772;2023-02-16T02:55:29;26.07;;;21.00;;
1837;SDS011;918;50.796;6.772;2023-02-16T02:58:15;23.20;;;18.67;;
1837;SDS011;918;50.796;6.772;2023-02-16T03:01:00;25.50;;;19.73;;
1837;SDS011;918;50.796;6.772;2023-02-16T03:03:30;23.20;;;19.87;;
1837;SDS011;918;50.796;6.772;2023-02-16T03:05:58;23.73;;;19.17;;
1837;SDS011;918;50.796;6.772;2023-02-16T03:08:26;27.03;;;19.07;;
1837;SDS011;918;50.796;6.772;2023-02-16T03:10:55;21.50;;;18.87;;
1837;SDS011;918;50.796;6.772;2023-02-16T03:13:43;24.87;;;19.83;;
1837;SDS011;918;50.796;6.772;2023-02-16T03:16:15;24.93;;;19.90;;
1837;SDS011;918;50.796;6.772;2023-02-16T03:18:46;22.60;;;18.40;;
1837;SDS011;918;50.796;6.772;2023-02-16T03:21:31;23.43;;;19.87;;
1837;SDS011;918;50.796;6.772;2023-02-16T03:24:18;27.93;;;18.00;;
1837;SDS011;918;50.796;6.772;2023-02-16T03:27:06;20.80;;;17.60;;
1837;SDS011;918;50.796;6.772;2023-02-16T03:29:50;22.30;;;18.67;;
1837;SDS011;918;50.796;6.772;2023-02-16T03:32:16;21.60;;;18.43;;
1837;SDS011;918;50.796;6.772;2023-02-16T03:34:42;19.57;;;17.47;;
1837;SDS011;918;50.796;6.772;2023-02-16T03:37:07;25.70;;;19.90;;
1837;SDS011;918;50.796;6.772;2023-02-16T03:39:33;18.90;;;16.93;;
1837;SDS011;918;50.796;6.772;2023-02-16T03:42:19;25.33;;;19.27;;
1837;SDS011;918;50.796;6.772;2023-02-16T03:44:45;22.83;;;18.63;;
1837;SDS011;918;50.796;6.772;2023-02-16T03:47:11;24.60;;;20.37;;
1837;SDS011;918;50.796;6.772;2023-02-16T03:49:36;22.83;;;19.80;;
1837;SDS011;918;50.796;6.772;2023-02-16T03:52:01;22.03;;;19.47;;
1837;SDS011;918;50.796;6.772;2023-02-16T03:54:26;25.90;;;20.30;;
1837;SDS011;918;50.796;6.772;2023-02-16T03:56:52;22.53;;;20.13;;
1837;SDS011;918;50.796;6.772;2023-02-16T03:59:17;24.57;;;20.00;;
1837;SDS011;918;50.796;6.772;2023-02-16T04:01:44;21.10;;;18.80;;
1837;SDS011;918;50.796;6.772;2023-02-16T04:04:09;22.77;;;18.33;;
1837;SDS011;918;50.796;6.772;2023-02-16T04:06:35;25.00;;;19.80;;
1837;SDS011;918;50.796;6.772;2023-02-16T04:09:00;21.07;;;18.70;;
1837;SDS011;918;50.796;6.772;2023-02-16T04:11:25;21.60;;;18.43;;
1837;SDS011;918;50.796;6.772;2023-02-16T04:14:09;26.07;;;19.70;;
1837;SDS011;918;50.796;6.772;2023-02-16T04:16:34;20.70;;;17.97;;
1837;SDS011;918;50.796;6.772;2023-02-16T04:18:59;22.60;;;18.77;;
1837;SDS011;918;50.796;6.772;2023-02-16T04:21:25;25.70;;;19.80;;
1837;SDS011;918;50.796;6.772;2023-02-16T04:23:50;23.50;;;19.30;;
1837;SDS011;918;50.796;6.772;2023-02-16T04:26:15;23.30;;;20.80;;
1837;SDS011;918;50.796;6.772;2023-02-16T04:28:41;28.40;;;20.33;;
1837;SDS011;918;50.796;6.772;2023-02-16T04:31:15;24.17;;;20.10;;
1837;SDS011;918;50.796;6.772;2023-02-16T04:33:40;27.03;;;20.93;;
1837;SDS011;918;50.796;6.772;2023-02-16T04:36:06;26.10;;;22.07;;
1837;SDS011;918;50.796;6.772;2023-02-16T04:38:32;26.57;;;22.40;;
1837;SDS011;918;50.796;6.772;2023-02-16T04:40:57;31.50;;;22.60;;
1837;SDS011;918;50.796;6.772;2023-02-16T04:43:22;27.70;;;23.47;;
1837;SDS011;918;50.796;6.772;2023-02-16T04:45:48;25.37;;;22.17;;
1837;SDS011;918;50.796;6.772;2023-02-16T04:48:13;26.90;;;21.03;;
1837;SDS011;918;50.796;6.772;2023-02-16T04:50:38;29.67;;;23.10;;
1837;SDS011;918;50.796;6.772;2023-02-16T04:53:03;24.97;;;22.03;;
1837;SDS011;918;50.796;6.772;2023-02-16T04:55:29;27.80;;;23.00;;
1837;SDS011;918;50.796;6.772;2023-02-16T04:57:54;30.30;;;21.90;;
1837;SDS011;918;50.796;6.772;2023-02-16T05:00:20;25.30;;;21.83;;
1837;SDS011;918;50.796;6.772;2023-02-16T05:02:45;28.47;;;21.30;;
1837;SDS011;918;50.796;6.772;2023-02-16T05:05:11;26.43;;;21.17;;
1837;SDS011;918;50.796;6.772;2023-02-16T05:07:36;28.27;;;22.43;;
1837;SDS011;918;50.796;6.772;2023-02-16T05:10:02;25.30;;;21.00;;
1837;SDS011;918;50.796;6.772;2023-02-16T05:12:28;27.17;;;22.43;;
1837;SDS011;918;50.796;6.772;2023-02-16T05:15:11;26.60;;;22.53;;
1837;SDS011;918;50.796;6.772;2023-02-16T05:17:36;26.13;;;22.60;;
1837;SDS011;918;50.796;6.772;2023-02-16T05:20:02;30.40;;;22.20;;
1837;SDS011;918;50.796;6.772;2023-02-16T05:22:27;26.33;;;21.23;;
1837;SDS011;918;50.796;6.772;2023-02-16T05:24:53;28.20;;;20.70;;
1837;SDS011;918;50.796;6.772;2023-02-16T05:27:19;28.00;;;22.80;;
1837;SDS011;918;50.796;6.772;2023-02-16T05:29:47;27.37;;;23.20;;
1837;SDS011;918;50.796;6.772;2023-02-16T05:32:13;28.50;;;22.80;;
1837;SDS011;918;50.796;6.772;2023-02-16T05:34:39;26.77;;;21.57;;
1837;SDS011;918;50.796;6.772;2023-02-16T05:37:04;30.10;;;22.80;;
1837;SDS011;918;50.796;6.772;2023-02-16T05:39:30;25.67;;;21.30;;
1837;SDS011;918;50.796;6.772;2023-02-16T05:41:55;29.97;;;24.23;;
1837;SDS011;918;50.796;6.772;2023-02-16T05:44:20;23.47;;;20.93;;
1837;SDS011;918;50.796;6.772;2023-02-16T05:46:46;29.53;;;22.23;;
1837;SDS011;918;50.796;6.772;2023-02-16T05:49:11;28.30;;;22.53;;
1837;SDS011;918;50.796;6.772;2023-02-16T05:51:37;26.30;;;22.07;;
1837;SDS011;918;50.796;6.772;2023-02-16T05:54:03;23.70;;;21.13;;
1837;SDS011;918;50.796;6.772;2023-02-16T05:56:29;26.53;;;21.63;;
1837;SDS011;918;50.796;6.772;2023-02-16T05:58:54;26.17;;;20.97;;
1837;SDS011;918;50.796;6.772;2023-02-16T06:01:20;27.47;;;24.30;;
1837;SDS011;918;50.796;6.772;2023-02-16T06:03:46;27.03;;;21.57;;
1837;SDS011;918;50.796;6.772;2023-02-16T06:06:11;30.70;;;25.07;;
1837;SDS011;918;50.796;6.772;2023-02-16T06:08:37;27.87;;;21.73;;
1837;SDS011;918;50.796;6.772;2023-02-16T06:11:03;29.00;;;22.17;;
1837;SDS011;918;50.796;6.772;2023-02-16T06:13:31;28.67;;;22.00;;
1837;SDS011;918;50.796;6.772;2023-02-16T06:15:56;27.33;;;21.70;;
1837;SDS011;918;50.796;6.772;2023-02-16T06:18:22;26.20;;;21.93;;
1837;SDS011;918;50.796;6.772;2023-02-16T06:20:48;27.90;;;21.43;;
1837;SDS011;918;50.796;6.772;2023-02-16T06:23:14;27.60;;;22.40;;
1837;SDS011;918;50.796;6.772;2023-02-16T06:25:47;26.40;;;22.97;;
1837;SDS011;918;50.796;6.772;2023-02-16T06:28:13;30.33;;;22.70;;
1837;SDS011;918;50.796;6.772;2023-02-16T06:30:39;31.13;;;22.37;;
1837;SDS011;918;50.796;6.772;2023-02-16T06:33:06;28.37;;;22.60;;
1837;SDS011;918;50.796;6.772;2023-02-16T06:35:31;27.80;;;22.17;;
1837;SDS011;918;50.796;6.772;2023-02-16T06:37:57;26.50;;;22.10;;
1837;SDS011;918;50.796;6.772;2023-02-16T06:40:23;23.53;;;21.10;;
1837;SDS011;918;50.796;6.772;2023-02-16T06:42:49;25.23;;;20.73;;
1837;SDS011;918;50.796;6.772;2023-02-16T06:45:15;30.37;;;22.80;;
1837;SDS011;918;50.796;6.772;2023-02-16T06:47:40;26.07;;;23.07;;
1837;SDS011;918;50.796;6.772;2023-02-16T06:50:06;27.47;;;24.10;;
1837;SDS011;918;50.796;6.772;2023-02-16T06:52:34;31.97;;;23.17;;
1837;SDS011;918;50.796;6.772;2023-02-16T06:54:59;30.40;;;25.37;;
1837;SDS011;918;50.796;6.772;2023-02-16T06:57:24;42.30;;;31.00;;
1837;SDS011;918;50.796;6.772;2023-02-16T06:59:49;32.23;;;26.80;;
1837;SDS011;918;50.796;6.772;2023-02-16T07:02:15;30.87;;;23.80;;
1837;SDS011;918;50.796;6.772;2023-02-16T07:04:40;28.00;;;22.67;;
1837;SDS011;918;50.796;6.772;2023-02-16T07:07:05;27.10;;;22.43;;
1837;SDS011;918;50.796;6.772;2023-02-16T07:09:31;25.90;;;21.53;;
1837;SDS011;918;50.796;6.772;2023-02-16T07:11:56;26.90;;;23.10;;
1837;SDS011;918;50.796;6.772;2023-02-16T07:14:21;26.40;;;22.70;;
1837;SDS011;918;50.796;6.772;2023-02-16T07:16:47;27.30;;;22.97;;
1837;SDS011;918;50.796;6.772;2023-02-16T07:19:12;29.57;;;23.57;;
1837;SDS011;918;50.796;6.772;2023-02-16T07:21:37;28.60;;;22.90;;
1837;SDS011;918;50.796;6.772;2023-02-16T07:24:02;27.53;;;21.43;;
1837;SDS011;918;50.796;6.772;2023-02-16T07:26:28;29.87;;;23.27;;
1837;SDS011;918;50.796;6.772;2023-02-16T07:28:53;28.67;;;23.00;;
1837;SDS011;918;50.796;6.772;2023-02-16T07:31:18;27.90;;;23.77;;
1837;SDS011;918;50.796;6.772;2023-02-16T07:33:44;27.43;;;23.07;;
1837;SDS011;918;50.796;6.772;2023-02-16T07:36:09;31.83;;;26.07;;
1837;SDS011;918;50.796;6.772;2023-02-16T07:38:36;29.93;;;23.93;;
1837;SDS011;918;50.796;6.772;2023-02-16T07:41:02;29.30;;;23.90;;
1837;SDS011;918;50.796;6.772;2023-02-16T07:43:27;29.70;;;24.60;;
1837;SDS011;918;50.796;6.772;2023-02-16T07:45:53;27.33;;;23.40;;
1837;SDS011;918;50.796;6.772;2023-02-16T07:48:18;28.93;;;23.57;;
1837;SDS011;918;50.796;6.772;2023-02-16T07:50:43;27.10;;;23.40;;
1837;SDS011;918;50.796;6.772;2023-02-16T07:53:09;29.23;;;22.50;;
1837;SDS011;918;50.796;6.772;2023-02-16T07:55:40;26.60;;;22.67;;
1837;SDS011;918;50.796;6.772;2023-02-16T07:58:06;26.70;;;22.97;;
1837;SDS011;918;50.796;6.772;2023-02-16T08:00:32;27.10;;;22.83;;
1837;SDS011;918;50.796;6.772;2023-02-16T08:02:57;27.97;;;23.00;;
1837;SDS011;918;50.796;6.772;2023-02-16T08:05:22;26.40;;;21.87;;
1837;SDS011;918;50.796;6.772;2023-02-16T08:07:48;26.23;;;22.40;;
1837;SDS011;918;50.796;6.772;2023-02-16T08:10:13;29.73;;;23.40;;
1837;SDS011;918;50.796;6.772;2023-02-16T08:12:38;25.70;;;22.40;;
1837;SDS011;918;50.796;6.772;2023-02-16T08:15:04;28.13;;;24.40;;
1837;SDS011;918;50.796;6.772;2023-02-16T08:17:29;29.97;;;22.37;;
1837;SDS011;918;50.796;6.772;2023-02-16T08:19:54;26.00;;;22.17;;
1837;SDS011;918;50.796;6.772;2023-02-16T08:22:19;26.43;;;23.70;;
1837;SDS011;918;50.796;6.772;2023-02-16T08:24:45;28.40;;;24.00;;
1837;SDS011;918;50.796;6.772;2023-02-16T08:27:10;25.73;;;22.73;;
1837;SDS011;918;50.796;6.772;2023-02-16T08:29:35;28.47;;;23.73;;
1837;SDS011;918;50.796;6.772;2023-02-16T08:32:45;25.10;;;22.40;;
1837;SDS011;918;50.796;6.772;2023-02-16T08:35:10;25.67;;;23.00;;
1837;SDS011;918;50.796;6.772;2023-02-16T08:37:37;28.83;;;23.57;;
1837;SDS011;918;50.796;6.772;2023-02-16T08:40:03;27.33;;;23.30;;
1837;SDS011;918;50.796;6.772;2023-02-16T08:42:30;29.37;;;23.10;;
1837;SDS011;918;50.796;6.772;2023-02-16T08:44:56;27.17;;;23.50;;
1837;SDS011;918;50.796;6.772;2023-02-16T08:47:22;27.43;;;22.67;;
1837;SDS011;918;50.796;6.772;2023-02-16T08:49:48;26.50;;;22.77;;
1837;SDS011;918;50.796;6.772;2023-02-16T08:52:13;29.57;;;24.33;;
1837;SDS011;918;50.796;6.772;2023-02-16T08:54:39;22.37;;;19.97;;
1837;SDS011;918;50.796;6.772;2023-02-16T08:57:04;26.43;;;22.40;;
1837;SDS011;918;50.796;6.772;2023-02-16T08:59:30;29.13;;;23.80;;
1837;SDS011;918;50.796;6.772;2023-02-16T09:01:56;24.70;;;22.10;;
1837;SDS011;918;50.796;6.772;2023-02-16T09:04:23;25.40;;;22.80;;
1837;SDS011;918;50.796;6.772;2023-02-16T09:06:49;25.70;;;22.73;;
1837;SDS011;918;50.796;6.772;2023-02-16T09:09:16;26.87;;;24.00;;
1837;SDS011;918;50.796;6.772;2023-02-16T09:11:42;26.27;;;23.13;;
1837;SDS011;918;50.796;6.772;2023-02-16T09:14:07;28.13;;;23.53;;
1837;SDS011;918;50.796;6.772;2023-02-16T09:16:33;27.57;;;22.97;;
1837;SDS011;918;50.796;6.772;2023-02-16T09:19:03;25.33;;;22.60;;
1837;SDS011;918;50.796;6.772;2023-02-16T09:21:32;26.07;;;23.37;;
1837;SDS011;918;50.796;6.772;2023-02-16T11:07:30;15.20;;;13.70;;
1837;SDS011;918;50.796;6.772;2023-02-16T11:09:58;22.03;;;15.17;;
1837;SDS011;918;50.796;6.772;2023-02-16T11:12:37;13.83;;;12.47;;
1837;SDS011;918;50.796;6.772;2023-02-16T11:17:51;15.77;;;14.27;;
1837;SDS011;918;50.796;6.772;2023-02-16T11:20:29;15.37;;;13.97;;
1837;SDS011;918;50.796;6.772;2023-02-16T11:23:18;15.83;;;13.77;;
1837;SDS011;918;50.796;6.772;2023-02-16T11:26:05;16.13;;;14.33;;
1837;SDS011;918;50.796;6.772;2023-02-16T11:28:35;16.70;;;14.67;;
1837;SDS011;918;50.796;6.772;2023-02-16T11:31:03;16.40;;;14.90;;
1837;SDS011;918;50.796;6.772;2023-02-16T11:34:01;15.07;;;13.67;;
1837;SDS011;918;50.796;6.772;2023-02-16T11:41:42;14.93;;;13.60;;
1837;SDS011;918;50.796;6.772;2023-02-16T11:44:18;15.70;;;14.20;;
1837;SDS011;918;50.796;6.772;2023-02-16T11:46:48;16.50;;;14.67;;
1837;SDS011;918;50.796;6.772;2023-02-16T11:51:51;17.03;;;15.33;;
1837;SDS011;918;50.796;6.772;2023-02-16T11:54:16;15.47;;;13.90;;
1837;SDS011;918;50.796;6.772;2023-02-16T11:56:42;16.63;;;15.00;;
1837;SDS011;918;50.796;6.772;2023-02-16T11:59:19;16.10;;;14.63;;
1837;SDS011;918;50.796;6.772;2023-02-16T12:04:42;19.13;;;15.40;;
1837;SDS011;918;50.796;6.772;2023-02-16T12:10:11;17.60;;;16.03;;
1837;SDS011;918;50.796;6.772;2023-02-16T12:12:58;16.90;;;15.13;;
1837;SDS011;918;50.796;6.772;2023-02-16T12:15:30;18.03;;;16.13;;
1837;SDS011;918;50.796;6.772;2023-02-16T12:20:51;15.60;;;14.10;;
1837;SDS011;918;50.796;6.772;2023-02-16T12:23:57;17.13;;;15.53;;
1837;SDS011;918;50.796;6.772;2023-02-16T12:29:43;17.33;;;15.63;;
1837;SDS011;918;50.796;6.772;2023-02-16T12:32:01;17.93;;;16.17;;
1837;SDS011;918;50.796;6.772;2023-02-16T12:34:52;17.70;;;15.90;;
1837;SDS011;918;50.796;6.772;2023-02-16T12:37:51;14.90;;;13.30;;
1837;SDS011;918;50.796;6.772;2023-02-16T12:40:36;15.80;;;14.20;;
1837;SDS011;918;50.796;6.772;2023-02-16T12:43:24;16.63;;;14.93;;
1837;SDS011;918;50.796;6.772;2023-02-16T12:45:52;15.77;;;14.20;;
1837;SDS011;918;50.796;6.772;2023-02-16T12:50:51;16.73;;;13.70;;
1837;SDS011;918;50.796;6.772;2023-02-16T12:54:18;18.90;;;15.40;;
1837;SDS011;918;50.796;6.772;2023-02-16T12:56:25;16.10;;;14.50;;
1837;SDS011;918;50.796;6.772;2023-02-16T12:58:54;16.13;;;14.70;;
1837;SDS011;918;50.796;6.772;2023-02-16T13:01:26;17.40;;;15.63;;
1837;SDS011;918;50.796;6.772;2023-02-16T13:03:56;15.90;;;14.40;;
1837;SDS011;918;50.796;6.772;2023-02-16T13:06:28;15.43;;;13.93;;
1837;SDS011;918;50.796;6.772;2023-02-16T13:14:22;16.07;;;14.50;;
1837;SDS011;918;50.796;6.772;2023-02-16T13:16:57;16.73;;;15.20;;
1837;SDS011;918;50.796;6.772;2023-02-16T13:19:24;17.53;;;15.83;;
1837;SDS011;918;50.796;6.772;2023-02-16T13:24:35;15.37;;;13.97;;
1837;SDS011;918;50.796;6.772;2023-02-16T13:27:09;16.13;;;14.63;;
1837;SDS011;918;50.796;6.772;2023-02-16T13:32:16;15.33;;;13.93;;
1837;SDS011;918;50.796;6.772;2023-02-16T13:34:53;15.67;;;14.07;;
1837;SDS011;918;50.796;6.772;2023-02-16T13:45:30;17.60;;;13.80;;
1837;SDS011;918;50.796;6.772;2023-02-16T13:47:55;16.30;;;14.80;;
1837;SDS011;918;50.796;6.772;2023-02-16T13:52:47;16.40;;;15.00;;
1837;SDS011;918;50.796;6.772;2023-02-16T14:02:54;15.53;;;14.10;;
1837;SDS011;918;50.796;6.772;2023-02-16T14:05:39;15.40;;;13.80;;
1837;SDS011;918;50.796;6.772;2023-02-16T14:08:13;15.07;;;13.67;;
1837;SDS011;918;50.796;6.772;2023-02-16T14:10:54;14.27;;;12.87;;
1837;SDS011;918;50.796;6.772;2023-02-16T14:13:29;16.20;;;14.70;;
1837;SDS011;918;50.796;6.772;2023-02-16T14:16:08;16.23;;;14.53;;
1837;SDS011;918;50.796;6.772;2023-02-16T14:21:03;16.60;;;15.00;;
1837;SDS011;918;50.796;6.772;2023-02-16T14:23:30;15.20;;;13.87;;
1837;SDS011;918;50.796;6.772;2023-02-16T14:26:05;14.77;;;13.47;;
1837;SDS011;918;50.796;6.772;2023-02-16T14:30:57;14.90;;;13.43;;
1837;SDS011;918;50.796;6.772;2023-02-16T14:33:36;14.13;;;12.83;;
1837;SDS011;918;50.796;6.772;2023-02-16T14:36:06;13.40;;;12.10;;
1837;SDS011;918;50.796;6.772;2023-02-16T14:41:10;11.97;;;10.77;;
1837;SDS011;918;50.796;6.772;2023-02-16T14:43:43;11.37;;;10.20;;
1837;SDS011;918;50.796;6.772;2023-02-16T14:49:33;11.10;;;10.00;;
1837;SDS011;918;50.796;6.772;2023-02-16T14:51:59;10.20;;;9.30;;
1837;SDS011;918;50.796;6.772;2023-02-16T15:03:18;10.87;;;9.73;;
1837;SDS011;918;50.796;6.772;2023-02-16T15:06:01;10.90;;;9.73;;
1837;SDS011;918;50.796;6.772;2023-02-16T15:08:30;11.13;;;10.03;;
1837;SDS011;918;50.796;6.772;2023-02-16T15:11:00;10.70;;;8.73;;
1837;SDS011;918;50.796;6.772;2023-02-16T15:13:30;9.83;;;8.93;;
1837;SDS011;918;50.796;6.772;2023-02-16T15:15:58;9.27;;;8.43;;
1837;SDS011;918;50.796;6.772;2023-02-16T15:18:30;9.20;;;8.40;;
1837;SDS011;918;50.796;6.772;2023-02-16T15:20:57;10.73;;;9.73;;
1837;SDS011;918;50.796;6.772;2023-02-16T15:23:27;13.47;;;11.17;;
1837;SDS011;918;50.796;6.772;2023-02-16T15:25:59;10.63;;;9.70;;
1837;SDS011;918;50.796;6.772;2023-02-16T15:28:33;9.33;;;8.43;;
1837;SDS011;918;50.796;6.772;2023-02-16T15:31:05;9.30;;;8.50;;
1837;SDS011;918;50.796;6.772;2023-02-16T15:36:06;9.47;;;8.60;;
1837;SDS011;918;50.796;6.772;2023-02-16T15:38:52;11.03;;;8.87;;
1837;SDS011;918;50.796;6.772;2023-02-16T15:41:39;10.53;;;9.50;;
1837;SDS011;918;50.796;6.772;2023-02-16T15:44:13;9.07;;;8.17;;
1837;SDS011;918;50.796;6.772;2023-02-16T15:46:54;8.70;;;7.83;;
1837;SDS011;918;50.796;6.772;2023-02-16T15:49:48;8.57;;;7.77;;
1837;SDS011;918;50.796;6.772;2023-02-16T15:52:28;11.50;;;8.50;;
1837;SDS011;918;50.796;6.772;2023-02-16T15:54:56;9.00;;;8.10;;
1837;SDS011;918;50.796;6.772;2023-02-16T15:57:29;8.30;;;7.50;;
1837;SDS011;918;50.796;6.772;2023-02-16T16:00:16;9.07;;;7.40;;
1837;SDS011;918;50.796;6.772;2023-02-16T16:02:44;11.13;;;10.07;;
1837;SDS011;918;50.796;6.772;2023-02-16T16:05:24;10.30;;;9.13;;
1837;SDS011;918;50.796;6.772;2023-02-16T16:07:51;13.53;;;9.50;;
1837;SDS011;918;50.796;6.772;2023-02-16T16:12:50;10.87;;;9.73;;
1837;SDS011;918;50.796;6.772;2023-02-16T16:15:18;11.57;;;10.37;;
1837;SDS011;918;50.796;6.772;2023-02-16T16:17:47;11.73;;;10.57;;
1837;SDS011;918;50.796;6.772;2023-02-16T16:23:23;11.10;;;10.10;;
1837;SDS011;918;50.796;6.772;2023-02-16T16:25:49;10.17;;;9.17;;
1837;SDS011;918;50.796;6.772;2023-02-16T16:31:04;10.93;;;9.93;;
1837;SDS011;918;50.796;6.772;2023-02-16T16:33:56;13.83;;;10.97;;
1837;SDS011;918;50.796;6.772;2023-02-16T16:36:52;11.27;;;10.17;;
1837;SDS011;918;50.796;6.772;2023-02-16T16:39:20;12.00;;;10.53;;
1837;SDS011;918;50.796;6.772;2023-02-16T16:44:56;10.97;;;9.97;;
1837;SDS011;918;50.796;6.772;2023-02-16T16:47:22;11.07;;;10.00;;
1837;SDS011;918;50.796;6.772;2023-02-16T16:49:52;11.57;;;10.37;;
1837;SDS011;918;50.796;6.772;2023-02-16T16:52:38;13.13;;;10.53;;
1837;SDS011;918;50.796;6.772;2023-02-16T16:57:43;10.97;;;9.87;;
1837;SDS011;918;50.796;6.772;2023-02-16T17:00:10;12.30;;;11.00;;
1837;SDS011;918;50.796;6.772;2023-02-16T17:02:36;11.90;;;10.70;;
1837;SDS011;918;50.796;6.772;2023-02-16T17:05:01;11.83;;;10.73;;
1837;SDS011;918;50.796;6.772;2023-02-16T17:07:26;10.93;;;10.00;;
1837;SDS011;918;50.796;6.772;2023-02-16T17:09:51;12.30;;;11.03;;
1837;SDS011;918;50.796;6.772;2023-02-16T17:12:17;13.53;;;12.00;;
1837;SDS011;918;50.796;6.772;2023-02-16T17:14:43;11.87;;;10.77;;
1837;SDS011;918;50.796;6.772;2023-02-16T17:17:10;13.00;;;11.70;;
1837;SDS011;918;50.796;6.772;2023-02-16T17:19:36;11.90;;;10.90;;
1837;SDS011;918;50.796;6.772;2023-02-16T17:22:01;12.67;;;11.37;;
1837;SDS011;918;50.796;6.772;2023-02-16T17:24:35;12.50;;;11.40;;
1837;SDS011;918;50.796;6.772;2023-02-16T17:27:00;13.57;;;11.30;;
1837;SDS011;918;50.796;6.772;2023-02-16T17:29:26;14.20;;;12.67;;
1837;SDS011;918;50.796;6.772;2023-02-16T17:31:51;12.23;;;10.87;;
1837;SDS011;918;50.796;6.772;2023-02-16T17:34:16;12.50;;;11.07;;
1837;SDS011;918;50.796;6.772;2023-02-16T17:36:41;17.00;;;13.70;;
1837;SDS011;918;50.796;6.772;2023-02-16T17:39:07;12.47;;;11.17;;
1837;SDS011;918;50.796;6.772;2023-02-16T17:41:32;14.50;;;13.00;;
1837;SDS011;918;50.796;6.772;2023-02-16T17:43:57;14.60;;;13.27;;
1837;SDS011;918;50.796;6.772;2023-02-16T17:46:23;16.83;;;12.40;;
1837;SDS011;918;50.796;6.772;2023-02-16T17:48:50;13.27;;;11.97;;
1837;SDS011;918;50.796;6.772;2023-02-16T17:51:18;15.17;;;13.67;;
1837;SDS011;918;50.796;6.772;2023-02-16T17:53:44;14.83;;;13.23;;
1837;SDS011;918;50.796;6.772;2023-02-16T17:56:11;13.47;;;12.13;;
1837;SDS011;918;50.796;6.772;2023-02-16T17:58:37;15.43;;;13.93;;
1837;SDS011;918;50.796;6.772;2023-02-16T18:01:03;16.00;;;14.37;;
1837;SDS011;918;50.796;6.772;2023-02-16T18:03:28;16.27;;;14.67;;
1837;SDS011;918;50.796;6.772;2023-02-16T18:05:54;16.37;;;14.90;;
1837;SDS011;918;50.796;6.772;2023-02-16T18:08:19;16.20;;;14.57;;
1837;SDS011;918;50.796;6.772;2023-02-16T18:10:45;15.03;;;13.40;;
1837;SDS011;918;50.796;6.772;2023-02-16T18:13:12;15.43;;;13.90;;
1837;SDS011;918;50.796;6.772;2023-02-16T18:15:39;14.73;;;13.33;;
1837;SDS011;918;50.796;6.772;2023-02-16T18:18:05;14.07;;;12.67;;
1837;SDS011;918;50.796;6.772;2023-02-16T18:20:31;13.80;;;12.50;;
1837;SDS011;918;50.796;6.772;2023-02-16T18:22:56;14.50;;;12.50;;
1837;SDS011;918;50.796;6.772;2023-02-16T18:25:22;16.63;;;13.10;;
1837;SDS011;918;50.796;6.772;2023-02-16T18:27:47;14.90;;;13.40;;
1837;SDS011;918;50.796;6.772;2023-02-16T18:30:13;14.10;;;12.60;;
1837;SDS011;918;50.796;6.772;2023-02-16T18:32:39;14.53;;;13.17;;
1837;SDS011;918;50.796;6.772;2023-02-16T18:35:06;14.97;;;13.37;;
1837;SDS011;918;50.796;6.772;2023-02-16T18:37:31;13.07;;;11.73;;
1837;SDS011;918;50.796;6.772;2023-02-16T18:39:57;14.30;;;12.90;;
1837;SDS011;918;50.796;6.772;2023-02-16T18:42:22;13.47;;;12.20;;
1837;SDS011;918;50.796;6.772;2023-02-16T18:44:48;15.87;;;14.27;;
1837;SDS011;918;50.796;6.772;2023-02-16T18:47:14;18.27;;;13.33;;
1837;SDS011;918;50.796;6.772;2023-02-16T18:49:39;14.20;;;12.80;;
1837;SDS011;918;50.796;6.772;2023-02-16T18:52:06;14.43;;;12.93;;
1837;SDS011;918;50.796;6.772;2023-02-16T18:54:31;14.23;;;12.83;;
1837;SDS011;918;50.796;6.772;2023-02-16T18:56:57;14.43;;;12.93;;
1837;SDS011;918;50.796;6.772;2023-02-16T18:59:22;14.67;;;13.13;;